createdAt,value
2023-02-19T00:01:08.320Z,84.85
2023-02-19T00:03:47.767Z,86.08
2023-02-19T00:06:14.643Z,84.52
2023-02-19T00:08:41.663Z,84.01
2023-02-19T00:11:11.379Z,85.40
2023-02-19T00:13:39.785Z,85.71
2023-02-19T00:16:16.674Z,85.31
2023-02-19T00:18:43.819Z,84.57
2023-02-19T00:21:11.543Z,86.40
2023-02-19T00:23:38.850Z,85.51
2023-02-19T00:26:17.527Z,85.73
2023-02-19T00:28:46.050Z,85.80
2023-02-19T00:31:15.994Z,85.42
2023-02-19T00:33:43.143Z,86.19
2023-02-19T00:36:10.092Z,86.95
2023-02-19T00:38:37.950Z,85.14
2023-02-19T00:41:18.611Z,85.66
2023-02-19T00:43:50.582Z,86.02
2023-02-19T00:46:18.715Z,85.66
2023-02-19T00:48:46.271Z,85.19
2023-02-19T00:51:13.637Z,85.23
2023-02-19T00:53:41.045Z,86.46
2023-02-19T00:56:08.610Z,85.60
2023-02-19T00:58:35.651Z,85.65
2023-02-19T01:01:02.756Z,84.71
2023-02-19T01:03:29.665Z,83.92
2023-02-19T01:05:56.814Z,84.81
2023-02-19T01:08:24.284Z,85.82
2023-02-19T01:10:51.655Z,85.72
2023-02-19T01:13:18.742Z,85.39
2023-02-19T01:15:46.067Z,85.84
2023-02-19T01:18:13.118Z,85.62
2023-02-19T01:20:41.897Z,85.50
2023-02-19T01:23:10.599Z,85.61
2023-02-19T01:25:39.011Z,85.45
2023-02-19T01:28:06.092Z,86.11
2023-02-19T01:30:36.630Z,86.17
2023-02-19T01:33:04.521Z,85.94
2023-02-19T01:35:31.425Z,85.89
2023-02-19T01:37:58.588Z,86.06
2023-02-19T01:40:25.823Z,85.96
2023-02-19T01:42:53.044Z,86.12
2023-02-19T01:45:22.766Z,85.39
2023-02-19T01:48:03.422Z,84.77
2023-02-19T01:50:34.584Z,85.31
2023-02-19T01:53:04.898Z,85.79
2023-02-19T01:55:32.987Z,85.81
2023-02-19T01:58:01.662Z,86.48
2023-02-19T02:00:28.969Z,86.26
2023-02-19T02:02:57.614Z,85.68
2023-02-19T02:05:32.298Z,85.73
2023-02-19T02:08:20.485Z,86.06
2023-02-19T02:10:48.546Z,86.72
2023-02-19T02:13:15.583Z,86.66
2023-02-19T02:15:47.057Z,86.80
2023-02-19T02:18:32.731Z,87.20
2023-02-19T02:21:07.193Z,87.21
2023-02-19T02:23:47.304Z,87.45
2023-02-19T02:26:30.812Z,86.22
2023-02-19T02:29:25.208Z,86.58
2023-02-19T02:32:02.805Z,88.16
2023-02-19T02:34:37.633Z,92.07
2023-02-19T02:37:05.060Z,93.59
2023-02-19T02:39:32.346Z,91.66
2023-02-19T02:42:18.184Z,91.71
2023-02-19T02:45:22.514Z,91.44
2023-02-19T02:47:52.536Z,93.21
2023-02-19T02:50:23.137Z,93.07
2023-02-19T02:53:10.502Z,92.27
2023-02-19T02:55:40.400Z,92.10
2023-02-19T02:58:08.224Z,91.44
2023-02-19T03:00:56.446Z,91.49
2023-02-19T03:03:25.253Z,90.74
2023-02-19T03:05:54.629Z,90.78
2023-02-19T03:08:25.072Z,91.02
2023-02-19T03:11:29.943Z,90.65
2023-02-19T03:14:39.527Z,90.53
2023-02-19T03:17:41.650Z,90.87
2023-02-19T03:20:11.871Z,90.42
2023-02-19T03:22:40.052Z,90.07
2023-02-19T03:25:28.039Z,92.43
2023-02-19T03:27:57.193Z,90.92
2023-02-19T03:30:28.168Z,90.62
2023-02-19T03:32:59.881Z,90.35
2023-02-19T03:35:29.901Z,89.92
2023-02-19T03:38:01.810Z,89.61
2023-02-19T03:40:30.378Z,90.36
2023-02-19T03:43:03.761Z,90.26
2023-02-19T03:45:41.898Z,90.23
2023-02-19T03:48:09.112Z,90.25
2023-02-19T03:50:41.761Z,90.25
2023-02-19T03:53:18.056Z,90.15
2023-02-19T03:55:51.611Z,89.61
2023-02-19T03:58:24.136Z,89.94
2023-02-19T04:01:10.125Z,90.08
2023-02-19T04:03:37.288Z,90.19
2023-02-19T04:06:09.353Z,90.81
2023-02-19T04:08:38.397Z,90.25
2023-02-19T04:11:05.868Z,90.26
2023-02-19T04:13:45.546Z,90.23
2023-02-19T04:16:21.530Z,90.24
2023-02-19T04:18:51.116Z,90.21
2023-02-19T04:21:19.499Z,90.29
2023-02-19T04:23:47.046Z,90.31
2023-02-19T04:26:14.858Z,90.29
2023-02-19T04:28:43.605Z,90.27
2023-02-19T04:31:11.366Z,90.13
2023-02-19T04:33:38.554Z,90.16
2023-02-19T04:36:07.033Z,90.18
2023-02-19T04:38:33.956Z,91.44
2023-02-19T04:41:00.829Z,91.47
2023-02-19T04:43:27.646Z,90.90
2023-02-19T04:45:55.423Z,90.94
2023-02-19T04:48:22.400Z,90.82
2023-02-19T04:50:49.652Z,90.68
2023-02-19T04:53:16.810Z,90.60
2023-02-19T04:55:43.968Z,90.47
2023-02-19T04:58:11.014Z,90.02
2023-02-19T05:00:38.072Z,90.36
2023-02-19T05:03:05.221Z,90.09
2023-02-19T05:05:32.275Z,90.07
2023-02-19T05:07:59.432Z,89.96
2023-02-19T05:10:26.302Z,89.76
2023-02-19T05:12:56.798Z,89.77
2023-02-19T05:15:24.784Z,89.67
2023-02-19T05:17:51.838Z,89.60
2023-02-19T05:20:18.892Z,89.65
2023-02-19T05:22:45.946Z,89.69
2023-02-19T05:25:12.894Z,89.57
2023-02-19T05:27:39.852Z,89.39
2023-02-19T05:30:07.168Z,89.35
2023-02-19T05:32:34.798Z,89.26
2023-02-19T05:35:01.928Z,89.57
2023-02-19T05:37:29.208Z,89.25
2023-02-19T05:39:56.136Z,89.27
2023-02-19T05:42:23.185Z,89.27
2023-02-19T05:44:50.134Z,89.28
2023-02-19T05:47:17.291Z,89.46
2023-02-19T05:49:44.241Z,89.53
2023-02-19T05:52:11.398Z,89.61
2023-02-19T05:54:38.453Z,89.65
2023-02-19T05:57:05.401Z,89.64
2023-02-19T05:59:32.348Z,89.60
2023-02-19T06:01:59.402Z,89.67
2023-02-19T06:04:26.660Z,89.76
2023-02-19T06:06:53.594Z,89.77
2023-02-19T06:09:20.414Z,89.91
2023-02-19T06:11:47.357Z,89.69
2023-02-19T06:14:14.564Z,89.64
2023-02-19T06:16:42.441Z,89.52
2023-02-19T06:19:09.902Z,89.73
2023-02-19T06:21:37.011Z,89.78
2023-02-19T06:24:04.580Z,89.63
2023-02-19T06:26:31.466Z,89.77
2023-02-19T06:28:58.621Z,89.61
2023-02-19T06:31:25.621Z,89.72
2023-02-19T06:33:52.715Z,89.90
2023-02-19T06:36:20.500Z,89.96
2023-02-19T06:38:47.765Z,90.05
2023-02-19T06:41:15.079Z,90.09
2023-02-19T06:43:42.396Z,90.22
2023-02-19T06:46:10.707Z,90.13
2023-02-19T06:48:38.634Z,90.15
2023-02-19T06:51:05.534Z,89.97
2023-02-19T06:53:32.655Z,90.12
2023-02-19T06:56:01.554Z,89.92
2023-02-19T06:58:28.686Z,89.84
2023-02-19T07:00:55.801Z,89.95
2023-02-19T07:03:22.929Z,90.08
2023-02-19T07:05:49.913Z,90.09
2023-02-19T07:08:17.112Z,90.21
2023-02-19T07:10:44.986Z,90.25
2023-02-19T07:13:12.203Z,90.27
2023-02-19T07:15:39.124Z,90.36
2023-02-19T07:18:09.775Z,90.21
2023-02-19T07:20:37.091Z,89.97
2023-02-19T07:23:04.326Z,89.94
2023-02-19T07:25:31.480Z,89.93
2023-02-19T07:27:58.532Z,89.71
2023-02-19T07:30:25.732Z,89.87
2023-02-19T07:32:52.943Z,89.91
2023-02-19T07:35:20.004Z,89.72
2023-02-19T07:37:47.013Z,89.87
2023-02-19T07:40:13.936Z,89.87
2023-02-19T07:42:40.888Z,89.94
2023-02-19T07:45:08.012Z,89.81
2023-02-19T07:47:35.021Z,89.90
2023-02-19T07:50:01.857Z,89.81
2023-02-19T07:52:29.066Z,89.63
2023-02-19T07:54:56.183Z,89.68
2023-02-19T07:57:23.067Z,89.60
2023-02-19T07:59:50.122Z,89.53
2023-02-19T08:02:37.236Z,89.49
2023-02-19T08:05:05.315Z,89.49
2023-02-19T08:07:36.050Z,89.32
2023-02-19T08:10:22.243Z,89.43
2023-02-19T08:13:15.483Z,89.21
2023-02-19T08:15:42.946Z,89.34
2023-02-19T08:18:10.510Z,89.24
2023-02-19T08:20:37.644Z,89.25
2023-02-19T08:23:04.640Z,89.31
2023-02-19T08:25:32.178Z,89.23
2023-02-19T08:28:02.461Z,89.08
2023-02-19T08:30:30.224Z,89.19
2023-02-19T08:32:59.708Z,88.93
2023-02-19T08:35:27.759Z,88.96
2023-02-19T08:37:56.145Z,89.11
2023-02-19T08:40:23.672Z,89.21
2023-02-19T08:42:50.614Z,89.31
2023-02-19T08:45:17.651Z,89.25
2023-02-19T08:47:45.060Z,89.06
2023-02-19T08:50:11.916Z,88.99
2023-02-19T08:52:38.967Z,89.26
2023-02-19T08:55:06.082Z,89.13
2023-02-19T08:57:35.059Z,89.01
2023-02-19T09:00:01.876Z,89.04
2023-02-19T09:02:29.739Z,89.03
2023-02-19T09:04:56.891Z,89.25
2023-02-19T09:07:24.654Z,89.39
2023-02-19T09:09:51.543Z,89.45
2023-02-19T09:12:19.174Z,89.74
2023-02-19T09:14:46.208Z,89.55
2023-02-19T09:17:13.177Z,88.75
2023-02-19T09:19:40.237Z,88.32
2023-02-19T09:22:07.302Z,88.62
2023-02-19T09:24:34.351Z,88.61
2023-02-19T09:27:01.494Z,88.77
2023-02-19T09:29:28.860Z,88.64
2023-02-19T09:31:57.567Z,88.78
2023-02-19T09:34:25.387Z,88.91
2023-02-19T09:36:52.420Z,88.89
2023-02-19T09:39:19.755Z,88.99
2023-02-19T09:41:52.510Z,88.73
2023-02-19T09:44:24.078Z,88.57
2023-02-19T09:46:52.296Z,88.64
2023-02-19T09:49:25.753Z,88.39
2023-02-19T09:51:58.330Z,88.17
2023-02-19T09:54:30.370Z,88.09
2023-02-19T09:57:00.007Z,88.03
2023-02-19T09:59:33.576Z,88.03
2023-02-19T10:02:20.648Z,87.92
2023-02-19T10:04:50.576Z,87.80
2023-02-19T10:07:43.777Z,87.87
2023-02-19T10:10:13.942Z,87.48
2023-02-19T10:12:45.453Z,87.68
2023-02-19T10:15:16.925Z,87.55
2023-02-19T10:17:44.163Z,87.59
2023-02-19T10:20:19.528Z,87.81
2023-02-19T10:22:46.456Z,87.66
2023-02-19T10:25:16.425Z,87.71
2023-02-19T10:27:43.713Z,87.96
2023-02-19T10:30:17.769Z,87.92
2023-02-19T10:33:08.158Z,87.91
2023-02-19T10:35:36.636Z,87.95
2023-02-19T10:38:06.334Z,87.95
2023-02-19T10:40:33.486Z,88.13
2023-02-19T10:43:01.872Z,88.34
2023-02-19T10:45:39.339Z,88.40
2023-02-19T10:48:09.817Z,88.34
2023-02-19T10:50:46.654Z,88.66
2023-02-19T10:53:23.043Z,88.60
2023-02-19T10:56:05.744Z,88.19
2023-02-19T10:58:37.364Z,87.91
2023-02-19T11:01:12.408Z,87.69
2023-02-19T11:03:39.899Z,87.77
2023-02-19T11:06:09.001Z,87.59
2023-02-19T11:08:55.776Z,87.12
2023-02-19T11:11:31.178Z,87.28
2023-02-19T11:13:59.425Z,87.20
2023-02-19T11:16:38.084Z,86.86
2023-02-19T11:19:05.397Z,86.35
2023-02-19T11:21:33.087Z,86.01
2023-02-19T11:24:04.602Z,86.06
2023-02-19T11:26:34.771Z,86.02
2023-02-19T11:29:11.519Z,86.12
2023-02-19T11:31:38.899Z,86.48
2023-02-19T11:34:06.031Z,87.57
2023-02-19T11:36:37.180Z,87.24
2023-02-19T11:39:16.173Z,87.29
2023-02-19T11:41:55.949Z,87.63
2023-02-19T11:44:33.696Z,87.80
2023-02-19T11:47:15.644Z,87.29
2023-02-19T11:49:51.700Z,87.87
2023-02-19T11:52:43.776Z,86.99
2023-02-19T11:55:10.778Z,87.69
2023-02-19T11:57:41.002Z,87.71
2023-02-19T12:00:18.536Z,88.37
2023-02-19T12:03:04.226Z,88.59
2023-02-19T12:05:39.620Z,87.16
2023-02-19T12:08:19.914Z,87.26
2023-02-19T12:11:03.184Z,87.39
2023-02-19T12:13:42.240Z,87.19
2023-02-19T12:16:09.340Z,86.69
2023-02-19T12:18:36.521Z,86.47
2023-02-19T12:21:18.721Z,86.14
2023-02-19T12:23:54.855Z,86.09
2023-02-19T12:26:25.512Z,85.19
2023-02-19T12:28:52.381Z,85.25
2023-02-19T12:31:34.402Z,85.41
2023-02-19T12:34:33.753Z,85.30
2023-02-19T12:37:19.015Z,85.13
2023-02-19T12:40:21.180Z,84.90
2023-02-19T12:42:53.855Z,84.71
2023-02-19T12:45:24.071Z,84.53
2023-02-19T12:47:59.515Z,84.88
2023-02-19T12:50:28.412Z,84.93
2023-02-19T12:53:01.298Z,84.54
2023-02-19T12:55:34.933Z,83.80
2023-02-19T12:58:04.459Z,84.57
2023-02-19T13:00:40.983Z,85.13
2023-02-19T13:03:20.301Z,85.87
2023-02-19T13:06:07.091Z,85.46
2023-02-19T13:08:48.785Z,84.90
2023-02-19T13:11:27.566Z,85.25
2023-02-19T13:13:58.323Z,87.11
2023-02-19T13:16:25.700Z,87.95
2023-02-19T13:18:57.791Z,87.31
2023-02-19T13:21:45.520Z,86.89
2023-02-19T13:24:33.346Z,87.39
2023-02-19T13:27:27.807Z,87.48
2023-02-19T13:30:03.823Z,86.82
2023-02-19T13:32:49.413Z,86.74
2023-02-19T13:35:28.685Z,87.98
2023-02-19T13:37:59.899Z,89.32
2023-02-19T13:40:34.495Z,88.49
2023-02-19T13:43:27.782Z,88.20
2023-02-19T13:45:56.888Z,87.88
2023-02-19T13:48:23.776Z,87.77
2023-02-19T13:51:10.909Z,88.18
2023-02-19T13:53:44.368Z,87.76
2023-02-19T13:56:34.757Z,87.61
2023-02-19T13:59:10.759Z,88.02
2023-02-19T14:01:52.433Z,88.06
2023-02-19T14:04:25.383Z,87.63
2023-02-19T14:07:04.638Z,87.12
2023-02-19T14:09:40.348Z,86.40
2023-02-19T14:12:07.184Z,87.00
2023-02-19T14:14:35.832Z,87.25
2023-02-19T14:17:08.597Z,86.69
2023-02-19T14:19:41.581Z,86.20
2023-02-19T14:22:30.216Z,86.54
2023-02-19T14:24:57.438Z,87.34
2023-02-19T14:27:24.910Z,86.63
2023-02-19T14:29:52.204Z,87.59
2023-02-19T14:32:20.001Z,86.75
2023-02-19T14:34:47.121Z,86.88
2023-02-19T14:37:19.284Z,87.32
2023-02-19T14:39:46.848Z,87.63
2023-02-19T14:42:17.122Z,86.93
2023-02-19T14:44:50.261Z,87.12
2023-02-19T14:47:19.578Z,87.24
2023-02-19T14:49:46.585Z,87.72
2023-02-19T14:52:19.519Z,87.65
2023-02-19T14:55:09.381Z,87.53
2023-02-19T14:57:39.102Z,87.90
2023-02-19T15:00:22.549Z,87.86
2023-02-19T15:02:50.301Z,87.90
2023-02-19T15:05:18.744Z,88.24
2023-02-19T15:07:45.828Z,87.91
2023-02-19T15:10:14.007Z,87.39
2023-02-19T15:12:46.299Z,88.28
2023-02-19T15:15:24.056Z,88.48
2023-02-19T15:17:52.259Z,88.37
2023-02-19T15:20:22.475Z,88.66
2023-02-19T15:22:49.666Z,88.50
2023-02-19T15:25:18.632Z,88.00
2023-02-19T15:27:45.684Z,88.51
2023-02-19T15:30:18.600Z,88.61
2023-02-19T15:33:11.772Z,88.67
2023-02-19T15:35:38.673Z,88.94
2023-02-19T15:38:10.947Z,88.92
2023-02-19T15:40:37.882Z,88.88
2023-02-19T15:43:04.859Z,89.28
2023-02-19T15:45:38.349Z,89.09
2023-02-19T15:48:07.692Z,88.98
2023-02-19T15:50:36.360Z,89.51
2023-02-19T15:53:13.643Z,89.38
2023-02-19T15:55:43.031Z,92.11
2023-02-19T15:58:19.093Z,92.33
2023-02-19T16:00:55.129Z,89.73
2023-02-19T16:03:23.509Z,91.33
2023-02-19T16:06:10.922Z,91.05
2023-02-19T16:08:39.505Z,91.06
2023-02-19T16:11:27.263Z,90.22
2023-02-19T16:14:12.708Z,91.03
2023-02-19T16:16:41.627Z,91.09
2023-02-19T16:19:09.398Z,90.51
2023-02-19T16:21:36.465Z,90.49
2023-02-19T16:24:05.652Z,92.27
2023-02-19T16:26:42.222Z,92.85
2023-02-19T16:29:20.061Z,91.89
2023-02-19T16:32:01.381Z,91.31
2023-02-19T16:34:40.128Z,91.14
2023-02-19T16:37:25.787Z,90.21
2023-02-19T16:40:05.129Z,89.28
2023-02-19T16:42:32.705Z,88.66
2023-02-19T16:44:59.857Z,89.20
2023-02-19T16:47:37.356Z,90.02
2023-02-19T16:50:11.553Z,88.70
2023-02-19T16:52:49.636Z,88.39
2023-02-19T16:55:16.508Z,87.59
2023-02-19T16:57:43.419Z,88.34
2023-02-19T17:00:19.782Z,88.45
2023-02-19T17:02:51.037Z,88.66
2023-02-19T17:05:18.635Z,88.34
2023-02-19T17:07:45.955Z,88.52
2023-02-19T17:10:15.358Z,87.93
2023-02-19T17:12:42.660Z,88.14
2023-02-19T17:15:09.712Z,88.22
2023-02-19T17:17:36.765Z,88.22
2023-02-19T17:20:17.558Z,88.36
2023-02-19T17:22:44.584Z,89.24
2023-02-19T17:25:11.943Z,88.75
2023-02-19T17:27:39.352Z,88.83
2023-02-19T17:30:10.962Z,89.07
2023-02-19T17:32:38.095Z,89.12
2023-02-19T17:35:05.583Z,88.88
2023-02-19T17:37:32.702Z,89.38
2023-02-19T17:39:59.888Z,89.19
2023-02-19T17:42:26.791Z,88.93
2023-02-19T17:44:53.895Z,87.78
2023-02-19T17:47:21.051Z,87.72
2023-02-19T17:49:47.968Z,87.60
2023-02-19T17:52:17.194Z,87.90
2023-02-19T17:54:44.420Z,87.21
2023-02-19T17:57:11.407Z,87.89
2023-02-19T17:59:38.358Z,88.61
2023-02-19T18:02:05.818Z,88.39
2023-02-19T18:04:35.449Z,88.51
2023-02-19T18:07:03.280Z,88.31
2023-02-19T18:09:30.251Z,88.50
2023-02-19T18:11:57.309Z,88.23
2023-02-19T18:14:24.357Z,87.94
2023-02-19T18:16:51.611Z,88.21
2023-02-19T18:19:19.091Z,88.47
2023-02-19T18:21:46.138Z,88.72
2023-02-19T18:24:13.315Z,88.69
2023-02-19T18:26:40.645Z,88.92
2023-02-19T18:29:07.801Z,88.99
2023-02-19T18:31:36.949Z,88.80
2023-02-19T18:34:04.567Z,88.78
2023-02-19T18:36:31.928Z,88.85
2023-02-19T18:38:58.967Z,88.68
2023-02-19T18:41:25.838Z,89.48
2023-02-19T18:43:52.813Z,92.79
2023-02-19T18:46:20.383Z,95.23
2023-02-19T18:48:47.500Z,92.91
2023-02-19T18:51:14.601Z,91.64
2023-02-19T18:53:42.424Z,91.70
2023-02-19T18:56:09.392Z,91.49
2023-02-19T18:58:36.428Z,90.97
2023-02-19T19:01:03.514Z,90.72
2023-02-19T19:03:31.340Z,91.01
2023-02-19T19:05:58.237Z,91.70
2023-02-19T19:08:25.255Z,91.22
2023-02-19T19:10:52.204Z,91.29
2023-02-19T19:13:19.096Z,91.37
2023-02-19T19:15:50.465Z,91.39
2023-02-19T19:18:17.926Z,91.11
2023-02-19T19:20:45.024Z,91.04
2023-02-19T19:23:12.377Z,90.93
2023-02-19T19:25:39.236Z,90.58
2023-02-19T19:28:06.284Z,90.74
2023-02-19T19:30:33.372Z,91.07
2023-02-19T19:33:01.929Z,91.08
2023-02-19T19:35:28.977Z,91.22
2023-02-19T19:37:56.033Z,91.07
2023-02-19T19:40:23.081Z,91.30
2023-02-19T19:42:50.598Z,91.13
2023-02-19T19:45:17.785Z,90.91
2023-02-19T19:47:44.852Z,91.31
2023-02-19T19:50:13.954Z,91.27
2023-02-19T19:52:41.212Z,89.61
2023-02-19T19:55:08.253Z,88.95
2023-02-19T19:57:35.329Z,88.45
2023-02-19T20:00:02.575Z,88.30
2023-02-19T20:02:39.176Z,88.14
2023-02-19T20:05:06.427Z,87.55
2023-02-19T20:07:33.556Z,87.26
2023-02-19T20:10:00.505Z,87.37
2023-02-19T20:12:27.455Z,87.81
2023-02-19T20:14:54.380Z,87.65
2023-02-19T20:17:21.488Z,87.60
2023-02-19T20:19:48.522Z,87.27
2023-02-19T20:22:15.578Z,87.02
2023-02-19T20:24:42.575Z,87.12
2023-02-19T20:27:09.580Z,87.25
2023-02-19T20:29:36.523Z,86.41
2023-02-19T20:32:03.739Z,86.25
2023-02-19T20:34:30.963Z,86.41
2023-02-19T20:36:58.288Z,87.02
2023-02-19T20:39:28.400Z,87.02
2023-02-19T20:41:56.080Z,87.25
2023-02-19T20:44:23.344Z,87.74
2023-02-19T20:46:51.268Z,88.59
2023-02-19T20:49:19.896Z,87.45
2023-02-19T20:51:49.510Z,88.65
2023-02-19T20:54:16.771Z,88.42
2023-02-19T20:56:47.624Z,88.33
2023-02-19T20:59:14.972Z,88.42
2023-02-19T21:01:42.327Z,88.41
2023-02-19T21:04:09.714Z,88.40
2023-02-19T21:06:36.946Z,88.14
2023-02-19T21:09:04.230Z,88.57
2023-02-19T21:11:31.763Z,88.44
2023-02-19T21:13:59.123Z,88.98
2023-02-19T21:16:27.083Z,90.24
2023-02-19T21:18:54.357Z,90.16
2023-02-19T21:21:24.721Z,89.56
2023-02-19T21:23:52.464Z,89.84
2023-02-19T21:26:19.846Z,89.84
2023-02-19T21:28:46.863Z,89.85
2023-02-19T21:31:13.997Z,90.70
2023-02-19T21:33:41.177Z,90.12
2023-02-19T21:36:08.675Z,89.07
2023-02-19T21:38:35.694Z,89.93
2023-02-19T21:41:02.848Z,89.79
2023-02-19T21:43:30.003Z,87.92
2023-02-19T21:45:57.000Z,87.51
2023-02-19T21:48:24.004Z,87.03
2023-02-19T21:50:51.070Z,86.96
2023-02-19T21:53:18.013Z,86.07
2023-02-19T21:55:57.952Z,84.23
2023-02-19T21:58:26.256Z,84.09
2023-02-19T22:00:53.884Z,83.76
2023-02-19T22:03:20.954Z,82.19
2023-02-19T22:05:48.005Z,81.89
2023-02-19T22:08:16.920Z,82.38
2023-02-19T22:10:43.849Z,81.85
2023-02-19T22:13:10.902Z,81.47
2023-02-19T22:15:37.850Z,82.03
2023-02-19T22:18:05.108Z,81.83
2023-02-19T22:20:32.160Z,81.45
2023-02-19T22:22:59.315Z,81.10
2023-02-19T22:25:26.369Z,80.48
2023-02-19T22:27:53.523Z,78.61
2023-02-19T22:30:20.723Z,78.73
2023-02-19T22:32:47.732Z,79.92
2023-02-19T22:35:15.813Z,80.24
2023-02-19T22:37:42.974Z,80.40
2023-02-19T22:40:10.226Z,80.45
2023-02-19T22:42:37.786Z,80.14
2023-02-19T22:45:05.453Z,79.90
2023-02-19T22:47:32.505Z,79.37
2023-02-19T22:49:59.559Z,79.17
2023-02-19T22:52:27.638Z,79.25
2023-02-19T22:54:55.505Z,79.49
2023-02-19T22:57:22.677Z,80.03
2023-02-19T22:59:49.818Z,78.12
2023-02-19T23:02:17.077Z,77.09
2023-02-19T23:04:44.128Z,73.45
2023-02-19T23:07:11.284Z,71.88
2023-02-19T23:09:38.337Z,73.08
2023-02-19T23:12:07.510Z,71.44
2023-02-19T23:14:35.105Z,72.56
2023-02-19T23:17:02.264Z,72.36
2023-02-19T23:19:29.831Z,73.93
2023-02-19T23:21:56.989Z,74.50
2023-02-19T23:24:24.548Z,74.59
2023-02-19T23:26:53.142Z,74.41
2023-02-19T23:29:21.730Z,75.13
2023-02-19T23:31:48.913Z,74.39
2023-02-19T23:34:16.355Z,74.52
2023-02-19T23:36:44.310Z,73.02
2023-02-19T23:39:12.926Z,72.03
2023-02-19T23:41:45.475Z,71.62
2023-02-19T23:44:12.526Z,71.51
2023-02-19T23:46:39.579Z,69.17
2023-02-19T23:49:06.633Z,68.71
2023-02-19T23:51:33.896Z,70.46
2023-02-19T23:54:01.146Z,69.83
2023-02-19T23:56:29.015Z,71.00
2023-02-19T23:58:56.275Z,69.46
